Time;durP1;ratioP1;P1;durP2;ratioP2;P2;SDS_P1;SDS_P2;PMS_P1;PMS_P2;Temp;Humidity;BMP_temperature;BMP_pressure;BME280_temperature;BME280_humidity;BME280_pressure;Samples;Min_cycle;Max_cycle;Signal;HPM_P1;HPM_P2
2021/12/10 00:01:04;;;;;;;186.25;62.25;;;3.50;99.90;;;;;;5044060;28;20520;-78
2021/12/10 00:03:33;;;;;;;178.40;62.80;;;3.60;99.90;;;;;;5051172;28;20036;-77
2021/12/10 00:06:13;;;;;;;180.10;62.60;;;3.60;99.90;;;;;;5059670;28;20023;-77
2021/12/10 00:08:43;;;;;;;178.98;61.75;;;3.50;99.90;;;;;;5059381;28;20032;-75
2021/12/10 00:11:31;;;;;;;176.82;62.53;;;3.50;99.90;;;;;;5060045;28;20016;-75
2021/12/10 00:13:57;;;;;;;182.35;63.67;;;3.50;99.90;;;;;;5059352;28;20101;-76
2021/12/10 00:16:24;;;;;;;183.05;63.97;;;3.50;99.90;;;;;;5058732;28;20041;-76
2021/12/10 00:18:55;;;;;;;176.63;62.83;;;3.50;99.90;;;;;;5059099;28;20205;-78
2021/12/10 00:21:24;;;;;;;194.82;67.18;;;3.50;99.90;;;;;;5059746;28;20009;-77
2021/12/10 00:23:51;;;;;;;192.27;64.43;;;3.40;99.90;;;;;;5059601;28;20024;-77
2021/12/10 00:26:20;;;;;;;193.52;66.78;;;3.40;99.90;;;;;;5059418;28;20021;-76
2021/12/10 00:28:47;;;;;;;186.73;65.20;;;3.40;99.90;;;;;;5059097;28;20125;-77
2021/12/10 00:31:44;;;;;;;194.13;67.57;;;3.40;99.90;;;;;;5059281;28;20036;-77
2021/12/10 00:34:17;;;;;;;194.23;65.20;;;3.40;99.90;;;;;;5059392;28;20010;-77
2021/12/10 00:36:45;;;;;;;194.70;65.00;;;3.40;99.90;;;;;;5050998;28;20025;-80
2021/12/10 00:39:22;;;;;;;195.40;67.13;;;3.40;99.90;;;;;;5044699;28;20024;-79
2021/12/10 00:41:49;;;;;;;196.18;67.50;;;3.40;99.90;;;;;;5040376;28;20121;-79
2021/12/10 00:44:14;;;;;;;205.75;67.38;;;3.30;99.90;;;;;;5043297;28;20336;-79
2021/12/10 00:46:40;;;;;;;197.13;66.13;;;3.30;99.90;;;;;;5048773;28;20060;-80
2021/12/10 00:49:08;;;;;;;206.07;68.43;;;3.30;99.90;;;;;;5040106;28;20017;-80
2021/12/10 00:51:34;;;;;;;214.30;70.70;;;3.30;99.90;;;;;;5043467;28;20018;-80
2021/12/10 00:54:01;;;;;;;194.43;68.40;;;3.40;99.90;;;;;;5045932;28;20025;-78
2021/12/10 00:56:26;;;;;;;201.18;67.93;;;3.30;99.90;;;;;;5040473;28;20032;-79
2021/12/10 00:58:52;;;;;;;190.50;68.50;;;3.30;99.90;;;;;;5036548;28;20116;-78
2021/12/10 01:01:23;;;;;;;211.73;69.90;;;3.30;99.90;;;;;;5046716;28;20037;-78
2021/12/10 01:03:55;;;;;;;213.60;70.18;;;3.30;99.90;;;;;;5057832;28;20026;-77
2021/12/10 01:06:21;;;;;;;188.13;65.45;;;3.30;99.90;;;;;;5046833;28;20025;-79
2021/12/10 01:08:52;;;;;;;205.23;69.22;;;3.30;99.90;;;;;;5050563;28;20060;-79
2021/12/10 01:11:30;;;;;;;210.75;69.35;;;3.30;99.90;;;;;;5042936;28;20036;-81
2021/12/10 01:14:07;;;;;;;192.98;66.18;;;3.40;99.90;;;;;;5038459;28;20025;-80
2021/12/10 01:25:05;;;;;;;195.48;65.38;;;3.50;99.90;;;;;;5039186;28;20028;-78
2021/12/10 01:27:35;;;;;;;196.85;67.40;;;3.50;99.90;;;;;;5039361;28;20017;-81
2021/12/10 01:30:21;;;;;;;190.82;67.35;;;3.50;99.90;;;;;;5043225;28;20021;-78
2021/12/10 01:33:00;;;;;;;191.05;63.80;;;3.50;99.90;;;;;;5048205;28;20413;-78
2021/12/10 01:35:34;;;;;;;178.27;64.78;;;3.50;99.90;;;;;;5051203;28;20075;-79
2021/12/10 01:38:02;;;;;;;194.30;65.85;;;3.50;99.90;;;;;;5049431;28;20025;-80
2021/12/10 01:40:30;;;;;;;197.20;67.97;;;3.40;99.90;;;;;;5046347;28;20100;-80
2021/12/10 01:43:06;;;;;;;199.05;66.40;;;3.40;99.90;;;;;;5047039;28;20044;-79
2021/12/10 01:45:36;;;;;;;189.43;66.78;;;3.40;99.90;;;;;;5052116;28;20024;-78
2021/12/10 01:48:10;;;;;;;197.63;67.00;;;3.30;99.90;;;;;;5057163;28;20015;-78
2021/12/10 01:50:36;;;;;;;188.87;66.53;;;3.40;99.90;;;;;;5042302;28;20029;-80
2021/12/10 01:53:06;;;;;;;187.50;64.88;;;3.40;99.90;;;;;;5041630;28;20025;-80
2021/12/10 01:55:34;;;;;;;183.50;63.47;;;3.40;99.90;;;;;;5044524;28;20033;-77
2021/12/10 01:58:02;;;;;;;181.88;63.70;;;3.50;99.90;;;;;;5056439;28;20021;-78
2021/12/10 02:00:31;;;;;;;185.68;65.65;;;3.50;99.90;;;;;;5056656;28;20013;-77
2021/12/10 02:02:57;;;;;;;185.38;64.13;;;3.50;99.90;;;;;;5056668;28;20010;-81
2021/12/10 02:05:24;;;;;;;188.52;65.13;;;3.50;99.90;;;;;;5039295;28;20045;-78
2021/12/10 02:07:51;;;;;;;186.77;65.00;;;3.50;99.90;;;;;;5050206;28;20025;-80
2021/12/10 02:10:19;;;;;;;193.95;63.20;;;3.40;99.90;;;;;;5048866;28;20009;-78
2021/12/10 02:12:46;;;;;;;181.13;62.70;;;3.40;99.90;;;;;;5051572;28;20072;-78
2021/12/10 02:15:13;;;;;;;175.35;62.05;;;3.40;99.90;;;;;;5052505;28;20521;-78
2021/12/10 02:17:47;;;;;;;178.93;65.70;;;3.40;99.90;;;;;;5049107;28;20025;-80
2021/12/10 02:20:20;;;;;;;194.50;66.15;;;3.40;99.90;;;;;;5039079;28;20025;-77
2021/12/10 02:22:47;;;;;;;192.60;62.33;;;3.40;99.90;;;;;;5044637;28;20502;-80
2021/12/10 02:25:15;;;;;;;191.63;64.88;;;3.40;99.90;;;;;;5038651;28;20025;-80
2021/12/10 02:27:41;;;;;;;173.93;62.00;;;3.40;99.90;;;;;;5040822;28;20022;-79
2021/12/10 02:30:10;;;;;;;172.20;61.35;;;3.40;99.90;;;;;;5053060;28;20038;-78
2021/12/10 02:32:36;;;;;;;189.15;62.78;;;3.40;99.90;;;;;;5044750;28;20043;-80
2021/12/10 02:35:02;;;;;;;184.27;63.20;;;3.50;99.90;;;;;;5038829;28;20113;-80
2021/12/10 02:37:28;;;;;;;183.70;62.95;;;3.50;99.90;;;;;;5038518;28;20073;-80
2021/12/10 02:39:53;;;;;;;168.13;62.05;;;3.50;99.90;;;;;;5043206;28;20013;-81
2021/12/10 02:42:19;;;;;;;167.60;60.35;;;3.50;99.90;;;;;;5045253;28;20501;-80
2021/12/10 02:44:45;;;;;;;170.65;60.65;;;3.50;99.90;;;;;;5050885;28;20029;-79
2021/12/10 02:47:13;;;;;;;174.43;62.20;;;3.50;99.90;;;;;;5052865;28;20037;-77
2021/12/10 02:49:40;;;;;;;166.00;58.75;;;3.50;99.90;;;;;;5054553;28;20085;-78
2021/12/10 02:52:09;;;;;;;178.48;61.28;;;3.50;99.90;;;;;;5048821;28;20032;-77
2021/12/10 02:54:36;;;;;;;178.60;59.88;;;3.50;99.90;;;;;;5042344;28;20040;-80
2021/12/10 02:57:15;;;;;;;165.18;59.63;;;3.50;99.90;;;;;;5042447;28;20055;-78
2021/12/10 02:59:41;;;;;;;172.95;61.55;;;3.50;99.90;;;;;;5045365;28;20026;-79
2021/12/10 03:02:10;;;;;;;169.43;59.53;;;3.50;99.90;;;;;;5043181;28;20021;-79
2021/12/10 03:04:36;;;;;;;171.50;60.63;;;3.50;99.90;;;;;;5042755;28;20021;-80
2021/12/10 03:07:08;;;;;;;174.70;61.45;;;3.50;99.90;;;;;;5040081;28;20021;-76
2021/12/10 03:09:34;;;;;;;172.43;60.38;;;3.50;99.90;;;;;;5054415;28;20041;-80
2021/12/10 03:12:00;;;;;;;178.82;59.60;;;3.50;99.90;;;;;;5044746;28;20033;-80
2021/12/10 03:14:32;;;;;;;164.85;60.15;;;3.50;99.90;;;;;;5046558;28;20044;-79
2021/12/10 03:17:03;;;;;;;169.93;61.63;;;3.50;99.90;;;;;;5050928;28;20073;-77
2021/12/10 03:19:29;;;;;;;175.10;61.25;;;3.50;99.90;;;;;;5033882;28;20131;-80
2021/12/10 03:21:55;;;;;;;170.25;59.58;;;3.50;99.90;;;;;;5053416;28;20016;-76
2021/12/10 03:24:25;;;;;;;173.77;59.78;;;3.50;99.90;;;;;;5055288;28;20029;-77
2021/12/10 03:26:53;;;;;;;178.00;62.53;;;3.40;99.90;;;;;;5055504;28;20090;-77
2021/12/10 03:29:20;;;;;;;176.98;61.28;;;3.40;99.90;;;;;;5059598;28;20088;-77
2021/12/10 03:31:47;;;;;;;175.23;61.17;;;3.40;99.90;;;;;;5059652;28;20048;-77
2021/12/10 03:34:13;;;;;;;178.95;60.88;;;3.30;99.90;;;;;;5058397;28;20057;-77
2021/12/10 03:36:45;;;;;;;167.85;60.72;;;3.40;99.90;;;;;;5057727;28;20018;-76
2021/12/10 03:39:12;;;;;;;170.07;61.03;;;3.50;99.90;;;;;;5058601;28;20037;-77
2021/12/10 03:41:38;;;;;;;172.23;60.60;;;3.50;99.90;;;;;;5059337;28;20024;-76
2021/12/10 03:44:04;;;;;;;177.05;60.50;;;3.60;99.90;;;;;;5056919;28;20033;-76
2021/12/10 03:46:30;;;;;;;163.85;59.80;;;3.60;99.90;;;;;;5058023;28;20029;-75
2021/12/10 03:48:56;;;;;;;172.45;63.15;;;3.70;99.90;;;;;;5059352;28;20074;-76
2021/12/10 03:51:24;;;;;;;168.48;59.40;;;3.60;99.90;;;;;;5058529;28;20109;-77
2021/12/10 03:53:51;;;;;;;165.93;58.85;;;3.70;99.90;;;;;;5059210;28;20018;-76
2021/12/10 03:56:20;;;;;;;156.68;55.53;;;3.70;99.90;;;;;;5059022;28;20101;-76
2021/12/10 03:58:47;;;;;;;157.68;56.65;;;3.70;99.90;;;;;;5059001;28;20026;-78
2021/12/10 04:01:16;;;;;;;159.40;56.33;;;3.70;99.90;;;;;;5058293;28;20022;-78
2021/12/10 04:03:45;;;;;;;151.15;54.45;;;3.70;99.90;;;;;;5057719;28;20028;-77
2021/12/10 04:06:11;;;;;;;157.70;55.80;;;3.70;99.90;;;;;;5056711;28;20021;-77
2021/12/10 04:08:36;;;;;;;153.43;53.90;;;3.70;99.90;;;;;;5057606;28;20032;-76
2021/12/10 04:11:04;;;;;;;145.70;53.17;;;3.80;99.90;;;;;;5057751;28;20065;-77
2021/12/10 04:13:30;;;;;;;151.20;54.58;;;3.70;99.90;;;;;;5056926;28;20041;-79
2021/12/10 04:15:56;;;;;;;149.30;53.47;;;3.70;99.90;;;;;;5042897;28;20021;-78
2021/12/10 04:18:22;;;;;;;141.48;53.67;;;3.70;99.90;;;;;;5052587;28;20075;-78
2021/12/10 04:20:48;;;;;;;143.43;52.67;;;3.70;99.90;;;;;;5045117;28;20032;-80
2021/12/10 04:23:16;;;;;;;148.20;53.65;;;3.80;99.90;;;;;;5038683;28;20093;-80
2021/12/10 04:25:42;;;;;;;140.05;53.20;;;3.70;99.90;;;;;;5037062;28;20018;-82
2021/12/10 04:28:12;;;;;;;146.43;50.42;;;3.70;99.90;;;;;;5037833;28;20025;-80
2021/12/10 04:30:42;;;;;;;143.40;50.30;;;3.70;99.90;;;;;;5036552;28;20116;-81
2021/12/10 04:33:09;;;;;;;142.35;48.85;;;3.70;99.90;;;;;;5037928;28;20022;-79
2021/12/10 04:35:35;;;;;;;141.27;49.90;;;3.70;99.90;;;;;;5037928;28;20087;-81
2021/12/10 04:38:02;;;;;;;140.77;51.83;;;3.70;99.90;;;;;;5037104;28;20026;-81
2021/12/10 04:40:28;;;;;;;146.43;52.10;;;3.60;99.90;;;;;;5043933;28;20089;-79
2021/12/10 04:42:53;;;;;;;147.40;51.22;;;3.60;99.90;;;;;;5053028;28;20040;-79
2021/12/10 04:45:20;;;;;;;140.55;50.33;;;3.60;99.90;;;;;;5065242;23;20044;-79
2021/12/10 04:47:47;;;;;;;129.75;46.78;;;3.60;99.90;;;;;;5032067;28;20501;-80
2021/12/10 04:50:17;;;;;;;139.50;48.97;;;3.60;99.90;;;;;;5021795;28;20056;-80
2021/12/10 04:52:43;;;;;;;140.25;49.00;;;3.50;99.90;;;;;;5023449;28;20034;-79
2021/12/10 04:55:11;;;;;;;141.27;49.05;;;3.50;99.90;;;;;;5020994;28;20370;-81
2021/12/10 04:57:38;;;;;;;134.07;48.67;;;3.50;99.90;;;;;;5019302;28;20101;-80
2021/12/10 05:00:06;;;;;;;138.25;47.83;;;3.50;99.90;;;;;;5020786;28;20041;-81
2021/12/10 05:02:34;;;;;;;133.23;46.55;;;3.50;99.90;;;;;;5020146;28;20022;-79
2021/12/10 05:05:00;;;;;;;142.90;49.42;;;3.50;99.90;;;;;;5021318;28;20030;-82
2021/12/10 05:07:30;;;;;;;131.18;47.15;;;3.50;99.90;;;;;;5019158;28;20085;-81
2021/12/10 05:09:56;;;;;;;132.02;46.35;;;3.50;99.90;;;;;;5023616;28;20108;-81
2021/12/10 05:12:22;;;;;;;133.88;48.25;;;3.50;99.90;;;;;;5022795;28;20125;-81
2021/12/10 05:14:48;;;;;;;128.52;48.30;;;3.50;99.90;;;;;;5024544;28;20046;-80
2021/12/10 05:17:14;;;;;;;133.05;46.15;;;3.50;99.90;;;;;;5026113;28;20057;-80
2021/12/10 05:19:42;;;;;;;125.53;45.70;;;3.50;99.90;;;;;;5027789;28;20053;-79
2021/12/10 05:22:11;;;;;;;127.82;45.28;;;3.50;99.90;;;;;;5031125;28;20021;-79
2021/12/10 05:24:37;;;;;;;129.70;46.10;;;3.50;99.90;;;;;;5036450;28;20048;-79
2021/12/10 05:27:03;;;;;;;144.02;48.80;;;3.50;99.90;;;;;;5023101;28;20040;-80
2021/12/10 05:29:29;;;;;;;129.07;47.05;;;3.50;99.90;;;;;;5022930;28;20029;-80
2021/12/10 05:31:58;;;;;;;131.25;46.67;;;3.50;99.90;;;;;;5025860;28;20030;-81
2021/12/10 05:34:24;;;;;;;124.68;44.78;;;3.50;99.90;;;;;;5026575;28;20029;-81
2021/12/10 05:36:50;;;;;;;134.77;46.15;;;3.50;99.90;;;;;;5036227;28;20018;-78
2021/12/10 05:39:17;;;;;;;129.65;46.63;;;3.50;99.90;;;;;;5035691;28;20102;-78
2021/12/10 05:41:43;;;;;;;125.72;46.25;;;3.50;99.90;;;;;;5034857;28;20033;-81
2021/12/10 05:44:09;;;;;;;121.50;46.90;;;3.50;99.90;;;;;;5026463;28;20034;-79
2021/12/10 05:46:37;;;;;;;126.53;47.17;;;3.50;99.90;;;;;;5024581;28;20169;-80
2021/12/10 05:49:04;;;;;;;134.65;46.25;;;3.50;99.90;;;;;;5023138;28;20018;-81
2021/12/10 05:51:30;;;;;;;131.63;46.45;;;3.50;99.90;;;;;;5021598;28;20433;-78
2021/12/10 05:53:55;;;;;;;133.05;46.47;;;3.40;99.90;;;;;;5022006;28;20026;-81
2021/12/10 05:56:21;;;;;;;121.35;45.70;;;3.50;99.90;;;;;;5021638;28;20037;-81
2021/12/10 05:58:47;;;;;;;125.28;46.67;;;3.40;99.90;;;;;;5025723;28;20022;-80
2021/12/10 06:01:16;;;;;;;130.23;46.42;;;3.40;99.90;;;;;;5024787;28;20029;-80
2021/12/10 06:03:51;;;;;;;124.65;44.60;;;3.30;99.90;;;;;;5020999;28;20029;-81
2021/12/10 06:06:17;;;;;;;121.32;45.67;;;3.30;99.90;;;;;;5018502;28;20141;-80
2021/12/10 06:08:43;;;;;;;121.47;46.50;;;3.30;99.90;;;;;;5021321;28;20033;-80
2021/12/10 06:11:08;;;;;;;122.85;46.13;;;3.20;99.90;;;;;;5028528;28;20010;-79
2021/12/10 06:13:34;;;;;;;120.35;45.10;;;3.20;99.90;;;;;;5019318;28;20026;-78
2021/12/10 06:16:02;;;;;;;123.68;45.53;;;3.20;99.90;;;;;;5020217;28;20529;-80
2021/12/10 06:18:27;;;;;;;129.95;46.45;;;3.20;99.90;;;;;;5020297;28;20093;-79
2021/12/10 06:20:54;;;;;;;127.72;45.33;;;3.20;99.90;;;;;;5020852;28;20065;-80
2021/12/10 06:23:20;;;;;;;120.45;45.50;;;3.20;99.90;;;;;;5028817;28;20018;-79
2021/12/10 06:25:46;;;;;;;112.72;42.33;;;3.10;99.90;;;;;;5028526;28;20033;-79
2021/12/10 06:28:12;;;;;;;110.80;42.95;;;3.10;99.90;;;;;;5023038;28;20022;-80
2021/12/10 06:30:41;;;;;;;123.60;44.22;;;3.10;99.90;;;;;;5030285;28;20030;-79
2021/12/10 06:33:10;;;;;;;116.28;41.78;;;3.10;99.90;;;;;;5022326;28;20028;-80
2021/12/10 06:35:37;;;;;;;125.38;44.17;;;3.10;99.90;;;;;;5020209;28;20022;-81
2021/12/10 06:38:04;;;;;;;126.40;45.25;;;3.10;99.90;;;;;;5020233;28;20393;-80
2021/12/10 06:40:33;;;;;;;116.88;44.92;;;3.10;99.90;;;;;;5018802;28;20037;-81
2021/12/10 06:43:00;;;;;;;117.93;42.33;;;3.10;99.90;;;;;;5019353;28;20037;-81
2021/12/10 06:45:28;;;;;;;124.28;43.50;;;3.10;99.90;;;;;;5019830;28;20026;-82
2021/12/10 06:47:58;;;;;;;131.40;45.47;;;3.10;99.90;;;;;;5030667;28;20027;-79
2021/12/10 06:50:26;;;;;;;122.95;43.67;;;3.10;99.90;;;;;;5029535;28;20033;-80
2021/12/10 06:52:53;;;;;;;132.00;46.83;;;3.20;99.90;;;;;;5021108;28;20022;-81
2021/12/10 06:55:18;;;;;;;124.32;44.30;;;3.20;99.90;;;;;;5019287;28;20034;-80
2021/12/10 06:57:44;;;;;;;126.97;44.47;;;3.20;99.90;;;;;;5026404;28;20034;-80
2021/12/10 07:00:26;;;;;;;130.18;45.45;;;3.20;99.90;;;;;;5033374;28;20030;-80
2021/12/10 07:02:52;;;;;;;133.48;46.70;;;3.20;99.90;;;;;;5035598;28;20026;-78
2021/12/10 07:05:17;;;;;;;129.10;47.58;;;3.20;99.90;;;;;;5025866;28;20041;-79
2021/12/10 07:07:46;;;;;;;128.77;46.58;;;3.30;99.90;;;;;;5022120;28;20481;-80
2021/12/10 07:10:13;;;;;;;123.15;46.28;;;3.20;99.90;;;;;;5026817;28;20026;-80
2021/12/10 07:12:40;;;;;;;124.65;44.90;;;3.20;99.90;;;;;;5027027;28;20032;-82
2021/12/10 07:15:09;;;;;;;126.13;45.70;;;3.20;99.90;;;;;;5024576;28;20029;-79
2021/12/10 07:17:40;;;;;;;131.00;45.78;;;3.30;99.90;;;;;;5024399;28;20044;-81
2021/12/10 07:20:07;;;;;;;122.05;44.17;;;3.30;99.90;;;;;;5026984;28;20026;-80
2021/12/10 07:22:36;;;;;;;130.85;45.20;;;3.30;99.90;;;;;;5026595;28;20052;-77
2021/12/10 07:25:04;;;;;;;120.68;45.22;;;3.30;99.90;;;;;;5026652;28;20559;-78
2021/12/10 07:27:29;;;;;;;129.48;47.35;;;3.30;99.90;;;;;;5022666;28;20033;-81
2021/12/10 07:29:55;;;;;;;129.93;44.78;;;3.30;99.90;;;;;;5024185;28;20060;-81
2021/12/10 07:32:21;;;;;;;127.75;44.97;;;3.40;99.90;;;;;;5023578;28;20394;-81
2021/12/10 07:34:46;;;;;;;122.47;45.35;;;3.30;99.90;;;;;;5024035;28;20097;-80
2021/12/10 07:37:12;;;;;;;139.65;48.20;;;3.40;99.90;;;;;;5023032;28;20033;-80
2021/12/10 07:39:38;;;;;;;119.95;45.65;;;3.30;99.90;;;;;;5029151;28;20037;-81
2021/12/10 07:42:08;;;;;;;130.55;45.92;;;3.30;99.90;;;;;;5032406;28;20030;-81
2021/12/10 07:44:35;;;;;;;133.55;46.00;;;3.30;99.90;;;;;;5028893;28;20030;-81
2021/12/10 07:47:09;;;;;;;124.70;44.28;;;3.30;99.90;;;;;;5023624;28;20052;-81
2021/12/10 07:49:37;;;;;;;123.35;46.75;;;3.30;99.90;;;;;;5027235;28;20026;-81
2021/12/10 07:52:06;;;;;;;129.63;45.97;;;3.40;99.90;;;;;;5026226;28;20034;-81
2021/12/10 07:54:31;;;;;;;134.07;46.13;;;3.40;99.90;;;;;;5023002;28;20026;-82
2021/12/10 07:56:57;;;;;;;129.65;45.88;;;3.40;99.90;;;;;;5024487;28;20108;-82
2021/12/10 07:59:23;;;;;;;133.52;48.70;;;3.50;99.90;;;;;;5024061;28;20053;-82
2021/12/10 08:01:49;;;;;;;130.93;47.00;;;3.50;99.90;;;;;;5029092;28;20117;-81
2021/12/10 08:04:15;;;;;;;135.32;49.47;;;3.60;99.90;;;;;;5027718;28;20032;-82
2021/12/10 08:06:40;;;;;;;129.10;47.30;;;3.60;99.90;;;;;;5024717;28;20022;-82
2021/12/10 08:09:08;;;;;;;127.70;45.17;;;3.70;99.90;;;;;;5023488;28;20026;-83
2021/12/10 08:11:34;;;;;;;127.18;45.85;;;3.70;99.90;;;;;;5024579;28;20053;-80
2021/12/10 08:14:00;;;;;;;128.32;45.83;;;3.70;99.90;;;;;;5024472;28;20060;-82
2021/12/10 08:16:26;;;;;;;133.43;46.67;;;3.70;99.90;;;;;;5031322;28;20050;-82
2021/12/10 08:18:53;;;;;;;125.03;44.92;;;3.80;99.90;;;;;;5036386;28;20026;-81
2021/12/10 08:21:20;;;;;;;127.97;46.47;;;3.70;99.90;;;;;;5035523;28;20030;-82
2021/12/10 08:23:46;;;;;;;130.10;46.53;;;3.70;99.90;;;;;;5036946;28;20430;-85
2021/12/10 08:26:13;;;;;;;131.52;46.15;;;3.70;99.90;;;;;;5036044;28;20030;-82
2021/12/10 08:28:39;;;;;;;119.20;45.03;;;3.80;99.90;;;;;;5039511;28;20030;-82
2021/12/10 08:31:06;;;;;;;127.25;46.58;;;3.70;99.90;;;;;;5038284;28;20037;-85
2021/12/10 08:33:32;;;;;;;128.80;45.78;;;3.70;99.90;;;;;;5034391;28;20033;-79
2021/12/10 08:36:05;;;;;;;133.35;48.45;;;3.70;99.90;;;;;;5031081;28;20010;-79
2021/12/10 08:38:32;;;;;;;123.93;46.13;;;3.70;99.90;;;;;;5030730;28;20030;-81
2021/12/10 08:41:06;;;;;;;135.32;45.80;;;3.70;99.90;;;;;;5030501;28;20026;-81
2021/12/10 08:43:32;;;;;;;129.65;47.38;;;3.70;99.90;;;;;;5025679;28;20103;-79
2021/12/10 08:45:59;;;;;;;128.25;46.35;;;3.70;99.90;;;;;;5026369;28;20030;-83
2021/12/10 08:48:28;;;;;;;123.82;46.72;;;3.60;99.90;;;;;;5033288;28;20041;-80
2021/12/10 08:50:58;;;;;;;125.30;45.75;;;3.60;99.90;;;;;;5030778;28;20033;-83
2021/12/10 08:53:26;;;;;;;125.50;43.67;;;3.60;99.90;;;;;;5032491;28;20037;-80
2021/12/10 08:55:55;;;;;;;127.53;45.70;;;3.70;99.90;;;;;;5033217;28;20044;-81
2021/12/10 08:58:21;;;;;;;125.43;45.40;;;3.70;99.90;;;;;;5032893;28;20036;-82
2021/12/10 09:00:51;;;;;;;128.35;44.38;;;3.70;99.90;;;;;;5027217;28;20050;-82
2021/12/10 09:03:18;;;;;;;125.38;45.80;;;3.70;99.90;;;;;;5032760;28;20093;-81
2021/12/10 09:05:44;;;;;;;126.93;45.80;;;3.70;99.90;;;;;;5032211;28;20034;-80
2021/12/10 09:08:10;;;;;;;119.55;44.47;;;3.70;99.90;;;;;;5029740;28;20025;-83
2021/12/10 09:10:40;;;;;;;129.52;47.38;;;3.70;99.90;;;;;;5030094;28;20026;-83
2021/12/10 09:13:13;;;;;;;122.72;45.55;;;3.80;99.90;;;;;;5030028;28;20026;-82
2021/12/10 09:15:40;;;;;;;118.03;43.15;;;3.80;99.90;;;;;;5029109;28;20081;-83
2021/12/10 09:18:08;;;;;;;110.30;42.70;;;3.80;99.90;;;;;;5028972;28;20036;-83
2021/12/10 09:20:38;;;;;;;123.15;45.58;;;3.80;99.90;;;;;;5029112;28;20105;-84
2021/12/10 09:23:09;;;;;;;111.32;41.60;;;3.90;99.90;;;;;;5027400;28;20026;-82
2021/12/10 09:25:35;;;;;;;132.75;45.55;;;3.90;99.90;;;;;;5026371;28;20045;-82
2021/12/10 09:28:01;;;;;;;125.45;43.28;;;3.90;99.90;;;;;;5028598;28;20089;-84
2021/12/10 09:30:30;;;;;;;111.28;42.53;;;3.90;99.90;;;;;;5035251;28;20018;-84
2021/12/10 09:32:56;;;;;;;118.10;42.03;;;3.90;99.90;;;;;;5035925;28;20029;-86
2021/12/10 09:35:27;;;;;;;110.25;41.40;;;3.90;99.90;;;;;;5036706;28;20017;-85
2021/12/10 09:37:55;;;;;;;109.15;39.95;;;3.90;99.90;;;;;;5037304;28;20020;-84
2021/12/10 09:40:25;;;;;;;113.15;40.97;;;3.90;99.90;;;;;;5039052;28;20070;-81
2021/12/10 09:42:52;;;;;;;111.90;39.35;;;3.90;99.90;;;;;;5039224;28;20072;-84
2021/12/10 09:45:22;;;;;;;113.32;38.97;;;3.90;99.90;;;;;;5038546;28;20026;-83
2021/12/10 09:47:49;;;;;;;112.82;40.38;;;4.00;99.90;;;;;;5038336;28;20022;-82
2021/12/10 09:50:16;;;;;;;112.60;38.70;;;3.90;99.90;;;;;;5030543;28;20130;-81
2021/12/10 09:52:43;;;;;;;109.13;38.55;;;4.00;99.90;;;;;;5020364;28;20018;-80
2021/12/10 09:55:12;;;;;;;111.32;38.28;;;4.10;99.90;;;;;;5020983;28;20030;-81
2021/12/10 09:57:38;;;;;;;107.68;41.25;;;4.10;99.90;;;;;;5020194;28;20037;-82
2021/12/10 10:00:27;;;;;;;97.95;37.40;;;4.10;99.90;;;;;;5020777;28;20061;-80
2021/12/10 10:02:54;;;;;;;93.50;35.55;;;4.20;99.90;;;;;;5029328;28;20030;-80
2021/12/10 10:05:26;;;;;;;103.35;36.70;;;4.20;99.90;;;;;;5034221;28;20038;-80
2021/12/10 10:07:52;;;;;;;157.60;57.33;;;4.30;99.90;;;;;;5024054;28;20109;-80
2021/12/10 10:10:18;;;;;;;91.40;35.75;;;4.30;99.90;;;;;;5024753;28;20018;-80
2021/12/10 10:12:49;;;;;;;101.25;35.22;;;4.30;99.90;;;;;;5029998;28;20044;-79
2021/12/10 10:15:20;;;;;;;96.63;34.13;;;4.30;99.90;;;;;;5035967;28;20025;-79
2021/12/10 10:17:47;;;;;;;90.95;34.47;;;4.30;99.90;;;;;;5031836;28;20022;-79
2021/12/10 10:20:16;;;;;;;95.40;35.10;;;4.20;99.90;;;;;;5026559;28;20026;-79
2021/12/10 10:22:44;;;;;;;99.28;35.97;;;4.20;99.90;;;;;;5022685;28;20022;-79
2021/12/10 10:25:11;;;;;;;85.00;33.00;;;4.20;99.90;;;;;;5024830;28;20065;-80
2021/12/10 10:27:39;;;;;;;89.70;33.92;;;4.30;99.90;;;;;;5023307;28;20025;-80
2021/12/10 10:30:30;;;;;;;95.88;33.67;;;4.30;99.90;;;;;;5024702;28;20124;-80
2021/12/10 10:33:01;;;;;;;96.43;34.13;;;4.30;99.90;;;;;;5024319;28;20018;-79
2021/12/10 10:35:35;;;;;;;87.97;33.85;;;4.30;99.90;;;;;;5021218;28;20029;-80
2021/12/10 10:38:01;;;;;;;80.82;33.00;;;4.40;99.90;;;;;;5025597;28;20089;-80
2021/12/10 10:40:41;;;;;;;93.47;35.55;;;4.40;99.90;;;;;;5036970;28;20021;-81
2021/12/10 10:43:07;;;;;;;92.15;34.25;;;4.50;99.90;;;;;;5039399;28;20022;-79
2021/12/10 10:45:37;;;;;;;91.07;33.33;;;4.60;99.90;;;;;;5053909;23;20037;-78
2021/12/10 10:48:05;;;;;;;86.70;32.72;;;4.60;99.90;;;;;;5051854;28;20026;-77
2021/12/10 10:50:37;;;;;;;95.47;33.30;;;4.70;99.90;;;;;;5046671;28;20025;-79
2021/12/10 10:53:12;;;;;;;88.82;34.40;;;4.70;99.90;;;;;;5039171;28;20025;-78
2021/12/10 10:55:47;;;;;;;86.60;33.10;;;4.80;99.90;;;;;;5040136;28;20029;-79
2021/12/10 10:58:16;;;;;;;94.55;33.88;;;4.80;99.90;;;;;;5040101;28;20032;-78
2021/12/10 11:00:59;;;;;;;90.38;33.35;;;4.80;99.90;;;;;;5044584;28;20029;-78
2021/12/10 11:03:37;;;;;;;93.70;33.10;;;4.90;99.90;;;;;;5044769;28;20032;-78
2021/12/10 11:06:11;;;;;;;86.38;32.35;;;4.80;99.90;;;;;;5047032;28;20026;-76
2021/12/10 11:08:42;;;;;;;85.22;32.97;;;4.90;99.90;;;;;;5044426;28;20037;-79
2021/12/10 11:11:15;;;;;;;91.90;34.28;;;4.80;99.90;;;;;;5041738;28;20033;-78
2021/12/10 11:13:45;;;;;;;89.18;34.50;;;4.90;99.90;;;;;;5042562;28;20049;-77
2021/12/10 11:16:17;;;;;;;92.03;34.80;;;4.90;99.90;;;;;;5042589;28;20417;-78
2021/12/10 11:18:54;;;;;;;83.03;31.88;;;4.90;99.90;;;;;;5045212;28;20104;-80
2021/12/10 11:21:40;;;;;;;84.85;32.35;;;5.00;99.90;;;;;;5044165;28;20029;-80
2021/12/10 11:24:25;;;;;;;94.20;32.28;;;5.10;99.90;;;;;;5058168;28;20038;-79
2021/12/10 11:26:51;;;;;;;87.90;34.00;;;5.10;99.90;;;;;;5059074;28;20221;-79
2021/12/10 11:29:32;;;;;;;86.15;32.38;;;5.10;99.90;;;;;;5059176;28;20061;-77
2021/12/10 11:32:05;;;;;;;86.00;31.73;;;5.20;99.90;;;;;;5059829;28;20016;-76
2021/12/10 11:34:52;;;;;;;84.32;31.92;;;5.20;99.90;;;;;;5059209;28;20009;-76
2021/12/10 11:37:42;;;;;;;80.15;31.77;;;5.20;99.90;;;;;;5057934;28;20016;-78
2021/12/10 11:40:31;;;;;;;89.57;32.10;;;5.20;99.90;;;;;;5059075;28;20053;-77
2021/12/10 11:43:03;;;;;;;84.97;30.50;;;5.30;99.90;;;;;;5058451;28;20052;-77
2021/12/10 11:45:44;;;;;;;85.15;30.77;;;5.30;99.90;;;;;;5058122;28;20060;-78
2021/12/10 11:48:18;;;;;;;78.25;30.30;;;5.30;99.90;;;;;;5041559;28;20095;-77
2021/12/10 11:51:01;;;;;;;80.65;29.92;;;5.30;99.90;;;;;;5036459;28;20115;-78
2021/12/10 11:53:40;;;;;;;82.82;29.90;;;5.30;99.90;;;;;;5036823;28;20021;-76
2021/12/10 11:56:11;;;;;;;80.15;31.40;;;5.20;99.90;;;;;;5035900;28;20025;-79
2021/12/10 11:58:37;;;;;;;73.75;30.58;;;5.20;99.90;;;;;;5035455;28;20100;-77
2021/12/10 12:01:03;;;;;;;87.22;33.67;;;5.30;99.90;;;;;;5035680;28;20064;-76
2021/12/10 12:03:32;;;;;;;79.10;30.92;;;5.30;99.90;;;;;;5038206;28;20030;-76
2021/12/10 12:05:59;;;;;;;77.47;30.83;;;5.30;99.90;;;;;;5039015;28;20021;-78
2021/12/10 12:08:25;;;;;;;76.82;30.40;;;5.20;99.90;;;;;;5041754;28;20049;-76
2021/12/10 12:10:59;;;;;;;80.22;30.77;;;5.20;99.90;;;;;;5044643;28;20017;-77
2021/12/10 12:13:37;;;;;;;78.95;30.48;;;5.20;99.90;;;;;;5049212;28;20085;-77
2021/12/10 12:16:06;;;;;;;74.18;29.83;;;5.20;99.90;;;;;;5059197;28;20067;-82
2021/12/10 12:18:37;;;;;;;76.60;30.38;;;5.30;99.90;;;;;;5059172;28;20025;-82
2021/12/10 12:27:15;;;;;;;83.45;31.13;;;5.40;99.90;;;;;;5056947;28;20032;-81
2021/12/10 12:29:47;;;;;;;86.28;30.90;;;5.30;99.90;;;;;;5040124;28;20113;-77
2021/12/10 12:32:20;;;;;;;81.45;30.92;;;5.30;99.90;;;;;;5038831;28;20080;-76
2021/12/10 12:34:47;;;;;;;85.72;32.05;;;5.30;99.90;;;;;;5036446;28;20037;-77
2021/12/10 12:37:14;;;;;;;75.20;31.13;;;5.20;99.90;;;;;;5035634;28;20022;-77
2021/12/10 12:39:44;;;;;;;86.78;32.90;;;5.20;99.90;;;;;;5041051;28;20033;-76
2021/12/10 12:42:18;;;;;;;83.60;31.85;;;5.20;99.90;;;;;;5042650;28;20025;-76
2021/12/10 12:44:45;;;;;;;;;;;5.20;99.90;;;;;;5041437;28;20049;-76
2021/12/10 12:47:20;;;;;;;79.68;30.83;;;5.20;99.90;;;;;;5043598;28;19944;-78
2021/12/10 12:49:48;;;;;;;;;;;5.20;99.90;;;;;;5044459;28;20068;-77
2021/12/10 12:52:25;;;;;;;81.93;31.13;;;5.20;99.90;;;;;;5041066;28;19905;-79
2021/12/10 12:55:18;;;;;;;89.10;33.45;;;5.20;99.90;;;;;;5042478;28;20389;-76